createdAt,value
2023-03-30T00:02:53.818Z,99602.53
2023-03-30T00:07:56.864Z,99608.69
2023-03-30T00:12:59.693Z,99590.13
2023-03-30T00:18:03.986Z,99585.28
2023-03-30T00:23:06.984Z,99581.53
2023-03-30T00:28:09.751Z,99580.03
2023-03-30T00:33:16.586Z,99576.63
2023-03-30T00:38:20.872Z,99575.41
2023-03-30T00:43:24.586Z,99567.22
2023-03-30T00:48:32.703Z,99542.75
2023-03-30T00:53:38.382Z,99548.59
2023-03-30T00:58:43.529Z,99536.97
2023-03-30T01:03:49.204Z,99530.44
2023-03-30T01:08:52.968Z,99530.94
2023-03-30T01:14:00.204Z,99523.56
2023-03-30T01:19:25.524Z,99503.63
2023-03-30T01:25:08.560Z,99519.97
2023-03-30T01:30:27.854Z,99502.91
2023-03-30T01:36:14.454Z,99500.34
2023-03-30T01:41:29.820Z,99494.66
2023-03-30T01:46:37.841Z,99473.59
2023-03-30T01:51:48.141Z,99480.13
2023-03-30T01:56:56.201Z,99446.91
2023-03-30T02:02:04.256Z,99432.53
2023-03-30T02:07:11.223Z,99433.63
2023-03-30T02:12:15.861Z,99440.22
2023-03-30T02:17:24.557Z,99441.06
2023-03-30T02:22:29.438Z,99443.94
2023-03-30T02:27:35.042Z,99440.66
2023-03-30T02:32:42.890Z,99440.03
2023-03-30T02:38:11.189Z,99440.63
2023-03-30T02:43:39.582Z,99432.94
2023-03-30T02:48:58.298Z,99436.38
2023-03-30T02:54:12.259Z,99425.91
2023-03-30T02:59:43.224Z,99411.06
2023-03-30T03:04:47.115Z,99402.16
2023-03-30T03:10:21.871Z,99390.81
2023-03-30T03:15:26.162Z,99399.34
2023-03-30T03:20:41.112Z,99404.41
2023-03-30T03:25:44.439Z,99400.09
2023-03-30T03:30:51.043Z,99398.44
2023-03-30T03:35:59.908Z,99378.88
2023-03-30T03:41:04.026Z,99366.34
2023-03-30T03:46:09.653Z,99350.06
2023-03-30T03:51:12.427Z,99336.09
2023-03-30T03:56:15.441Z,99329.59
2023-03-30T04:01:19.728Z,99343.38
2023-03-30T04:06:22.535Z,99351.84
2023-03-30T04:11:26.646Z,99337.88
2023-03-30T04:16:52.479Z,99338.97
2023-03-30T04:22:13.957Z,99345.25
2023-03-30T04:27:42.675Z,99339.81
2023-03-30T04:33:16.104Z,99334.91
2023-03-30T04:38:36.466Z,99342.09
2023-03-30T04:43:59.606Z,99328.75
2023-03-30T04:49:21.715Z,99337.72
2023-03-30T04:55:02.882Z,99333.53
2023-03-30T05:00:09.041Z,99337.59
2023-03-30T05:05:31.586Z,99321.97
2023-03-30T05:10:52.987Z,99323.25
2023-03-30T05:16:16.161Z,99330.31
2023-03-30T05:21:23.098Z,99314.13
2023-03-30T05:26:46.147Z,99312.13
2023-03-30T05:32:12.503Z,99322.97
2023-03-30T05:37:39.794Z,99323.16
2023-03-30T05:43:09.394Z,99308.03
2023-03-30T05:48:32.516Z,99306.22
2023-03-30T05:53:59.747Z,99310.41
2023-03-30T05:59:31.752Z,99293.09
2023-03-30T06:04:53.466Z,99290.84
2023-03-30T06:09:59.610Z,99268.25
2023-03-30T06:15:05.089Z,99282.09
2023-03-30T06:20:27.531Z,99273.66
2023-03-30T06:25:32.463Z,99283.81
2023-03-30T06:30:35.981Z,99281.09
2023-03-30T06:35:46.182Z,99285.16
2023-03-30T06:40:51.347Z,99287.72
2023-03-30T06:45:57.948Z,99289.03
2023-03-30T06:51:02.497Z,99292.22
2023-03-30T06:56:08.654Z,99299.50
2023-03-30T07:01:18.816Z,99302.72
2023-03-30T07:06:40.656Z,99302.56
2023-03-30T07:11:45.573Z,99298.97
2023-03-30T07:16:49.281Z,99299.09
2023-03-30T07:21:52.480Z,99291.13
2023-03-30T07:27:01.078Z,99300.69
2023-03-30T07:32:04.546Z,99287.50
2023-03-30T07:37:07.818Z,99300.88
2023-03-30T07:42:12.337Z,99300.84
2023-03-30T07:47:16.629Z,99297.22
2023-03-30T07:52:20.241Z,99308.75
2023-03-30T07:57:32.427Z,99304.84
2023-03-30T08:02:36.568Z,99293.66
2023-03-30T08:07:39.720Z,99304.00
2023-03-30T08:12:52.258Z,99319.63
2023-03-30T08:17:55.291Z,99306.09
2023-03-30T08:22:58.109Z,99303.22
2023-03-30T08:28:02.314Z,99295.59
2023-03-30T08:33:05.696Z,99313.69
2023-03-30T08:38:09.853Z,99311.16
2023-03-30T08:43:37.839Z,99326.16
2023-03-30T08:48:42.915Z,99297.13
2023-03-30T08:53:45.748Z,99306.75
2023-03-30T08:59:00.123Z,99319.75
2023-03-30T09:04:12.740Z,99316.34
2023-03-30T09:09:17.882Z,99318.81
2023-03-30T09:14:33.007Z,99320.75
2023-03-30T09:19:41.768Z,99318.19
2023-03-30T09:24:44.632Z,99337.34
2023-03-30T09:29:51.607Z,99355.03
2023-03-30T09:35:00.777Z,99371.63
2023-03-30T09:40:19.734Z,99384.78
2023-03-30T09:45:28.261Z,99416.41
2023-03-30T09:50:31.744Z,99383.66
2023-03-30T09:55:36.659Z,99373.78
2023-03-30T10:00:41.423Z,99382.66
2023-03-30T10:05:44.326Z,99397.06
2023-03-30T10:10:53.867Z,99411.09
2023-03-30T10:16:04.836Z,99400.63
2023-03-30T10:21:17.980Z,99405.41
2023-03-30T10:26:21.250Z,99408.25
2023-03-30T10:31:28.063Z,99419.91
2023-03-30T10:36:33.836Z,99412.25
2023-03-30T10:41:39.675Z,99408.31
2023-03-30T10:46:44.135Z,99391.91
2023-03-30T10:51:57.783Z,99380.28
2023-03-30T10:57:08.058Z,99381.63
2023-03-30T11:02:31.378Z,99377.91
2023-03-30T11:07:39.307Z,99372.44
2023-03-30T11:12:45.978Z,99387.50
2023-03-30T11:17:56.832Z,99389.94
2023-03-30T11:23:11.923Z,99384.47
2023-03-30T11:28:23.696Z,99389.94
2023-03-30T11:33:35.567Z,99395.13
2023-03-30T11:38:46.993Z,99385.19
2023-03-30T11:43:50.563Z,99378.44
2023-03-30T11:49:10.214Z,99403.06
2023-03-30T11:54:38.537Z,99395.75
2023-03-30T11:59:48.986Z,99368.75
2023-03-30T12:04:57.795Z,99379.38
2023-03-30T12:10:06.099Z,99394.56
2023-03-30T12:15:26.631Z,99394.69
2023-03-30T12:20:38.294Z,99401.13
2023-03-30T12:26:01.351Z,99407.28
2023-03-30T12:31:04.480Z,99408.25
2023-03-30T12:36:26.054Z,99388.06
2023-03-30T12:41:39.925Z,99393.25
2023-03-30T12:46:51.397Z,99375.25
2023-03-30T12:52:09.556Z,99368.94
2023-03-30T12:57:28.141Z,99383.81
2023-03-30T13:02:56.823Z,99424.88
2023-03-30T13:08:05.536Z,99410.75
2023-03-30T13:13:19.004Z,99396.50
2023-03-30T13:18:36.766Z,99414.00
2023-03-30T13:23:40.898Z,99397.81
2023-03-30T13:28:58.144Z,99396.22
2023-03-30T13:34:08.759Z,99392.84
2023-03-30T13:39:22.747Z,99399.91
2023-03-30T13:44:42.491Z,99403.28
2023-03-30T13:49:53.948Z,99407.44
2023-03-30T13:54:58.552Z,99397.97
2023-03-30T14:00:09.465Z,99402.13
2023-03-30T14:05:14.453Z,99398.63
2023-03-30T14:10:20.754Z,99421.34
2023-03-30T14:15:27.292Z,99388.00
2023-03-30T14:20:45.475Z,99409.94
2023-03-30T14:25:49.731Z,99407.44
2023-03-30T14:30:54.345Z,99412.66
2023-03-30T14:35:59.479Z,99394.28
2023-03-30T14:41:08.370Z,99418.25
2023-03-30T14:46:13.541Z,99426.16
2023-03-30T14:51:25.520Z,99441.94
2023-03-30T14:56:30.957Z,99462.97
2023-03-30T15:01:35.105Z,99474.06
2023-03-30T15:06:39.127Z,99478.81
2023-03-30T15:11:45.778Z,99503.28
2023-03-30T15:16:53.615Z,99488.88
2023-03-30T15:21:59.508Z,99494.97
2023-03-30T15:27:06.612Z,99488.34
2023-03-30T15:32:16.486Z,99482.00
2023-03-30T15:37:24.087Z,99466.34
2023-03-30T15:42:30.866Z,99475.41
2023-03-30T15:47:34.694Z,99467.47
2023-03-30T15:52:42.948Z,99465.66
2023-03-30T15:57:49.099Z,99480.38
2023-03-30T16:02:57.637Z,99465.41
2023-03-30T16:08:01.303Z,99470.34
2023-03-30T16:13:07.000Z,99466.66
2023-03-30T16:18:11.756Z,99458.59
2023-03-30T16:23:14.623Z,99466.91
2023-03-30T16:28:19.444Z,99462.75
2023-03-30T16:33:22.393Z,99456.38
2023-03-30T16:38:25.409Z,99461.06
2023-03-30T16:43:29.609Z,99466.72
2023-03-30T16:48:32.423Z,99469.84
2023-03-30T16:53:35.458Z,99467.28
2023-03-30T16:58:39.878Z,99463.56
2023-03-30T17:03:42.758Z,99465.34
2023-03-30T17:08:46.352Z,99457.81
2023-03-30T17:13:51.261Z,99455.03
2023-03-30T17:18:54.046Z,99476.13
2023-03-30T17:23:56.879Z,99500.34
2023-03-30T17:29:01.185Z,99476.94
2023-03-30T17:34:04.100Z,99496.06
2023-03-30T17:39:07.224Z,99492.78
2023-03-30T17:44:11.482Z,99509.69
2023-03-30T17:49:17.885Z,99499.50
2023-03-30T17:54:20.847Z,99510.34
2023-03-30T17:59:25.208Z,99501.56
2023-03-30T18:04:28.589Z,99506.91
2023-03-30T18:09:31.492Z,99503.66
2023-03-30T18:14:35.677Z,99490.38
2023-03-30T18:19:38.466Z,99514.22
2023-03-30T18:24:42.496Z,99512.41
2023-03-30T18:29:46.726Z,99516.47
2023-03-30T18:34:49.489Z,99521.09
2023-03-30T18:39:52.255Z,99529.69
2023-03-30T18:44:56.444Z,99529.47
2023-03-30T18:49:59.370Z,99530.16
2023-03-30T18:55:02.159Z,99533.25
2023-03-30T19:00:15.290Z,99534.72
2023-03-30T19:05:20.602Z,99529.91
2023-03-30T19:10:27.435Z,99531.47
2023-03-30T19:15:33.714Z,99521.69
2023-03-30T19:20:39.876Z,99529.06
2023-03-30T19:25:43.905Z,99525.66
2023-03-30T19:30:48.505Z,99527.81
2023-03-30T19:35:51.359Z,99526.38
2023-03-30T19:40:54.174Z,99536.69
2023-03-30T19:45:58.438Z,99523.84
2023-03-30T19:51:02.271Z,99526.69
2023-03-30T19:56:10.254Z,99517.16
2023-03-30T20:01:14.539Z,99537.63
2023-03-30T20:06:17.329Z,99509.72
2023-03-30T20:11:20.066Z,99525.53
2023-03-30T20:16:25.936Z,99509.31
2023-03-30T20:21:28.996Z,99507.59
2023-03-30T20:26:32.681Z,99527.63
2023-03-30T20:31:36.900Z,99500.41
2023-03-30T20:36:40.419Z,99504.50
2023-03-30T20:41:43.250Z,99498.13
2023-03-30T20:46:47.475Z,99498.13
2023-03-30T20:51:50.718Z,99510.53
2023-03-30T20:56:53.532Z,99495.25
2023-03-30T21:01:59.167Z,99493.03
2023-03-30T21:07:02.131Z,99481.66
2023-03-30T21:12:05.350Z,99478.50
2023-03-30T21:17:09.680Z,99479.03
2023-03-30T21:22:12.553Z,99470.91
2023-03-30T21:27:15.650Z,99467.88
2023-03-30T21:32:19.862Z,99455.88
2023-03-30T21:37:22.653Z,99443.75
2023-03-30T21:42:25.638Z,99439.25
2023-03-30T21:47:29.809Z,99429.28
2023-03-30T21:52:33.538Z,99432.81
2023-03-30T21:57:36.379Z,99420.28
2023-03-30T22:02:40.601Z,99424.09
2023-03-30T22:07:43.504Z,99421.75
2023-03-30T22:12:46.390Z,99421.72
2023-03-30T22:17:50.543Z,99417.22
2023-03-30T22:22:53.345Z,99410.03
2023-03-30T22:27:57.888Z,99403.28
2023-03-30T22:33:02.529Z,99408.22
2023-03-30T22:38:05.711Z,99397.47
2023-03-30T22:43:09.478Z,99397.31
2023-03-30T22:48:13.697Z,99396.19
2023-03-30T22:53:16.504Z,99389.81
2023-03-30T22:58:19.247Z,99383.75
2023-03-30T23:03:23.490Z,99379.38
2023-03-30T23:08:26.306Z,99378.69
2023-03-30T23:13:29.246Z,99377.56
2023-03-30T23:18:33.940Z,99359.75
2023-03-30T23:23:37.744Z,99367.66
2023-03-30T23:28:42.294Z,99364.34
2023-03-30T23:33:46.816Z,99356.00
2023-03-30T23:38:51.582Z,99356.56
2023-03-30T23:43:54.370Z,99350.06
2023-03-30T23:48:58.577Z,99347.44
2023-03-30T23:54:06.181Z,99337.19
2023-03-30T23:59:10.094Z,99335.25
